createdAt,value
2022-12-09T00:00:14.792Z,377
2022-12-09T00:01:14.192Z,381
2022-12-09T00:02:13.043Z,378
2022-12-09T00:03:13.248Z,373
2022-12-09T00:04:13.205Z,362
2022-12-09T00:05:13.767Z,361
2022-12-09T00:06:14.505Z,343
2022-12-09T00:07:13.798Z,388
2022-12-09T00:08:13.655Z,376
2022-12-09T00:09:13.176Z,371
2022-12-09T00:10:13.865Z,372
2022-12-09T00:11:13.947Z,378
2022-12-09T00:12:14.258Z,366
2022-12-09T00:13:14.380Z,362
2022-12-09T00:14:14.457Z,366
2022-12-09T00:15:13.570Z,373
2022-12-09T00:16:18.753Z,377
2022-12-09T00:17:15.067Z,386
2022-12-09T00:18:18.941Z,384
2022-12-09T00:19:14.415Z,380
2022-12-09T00:20:15.152Z,373
2022-12-09T00:21:14.620Z,370
2022-12-09T00:22:18.498Z,369
2022-12-09T00:23:14.007Z,368
2022-12-09T00:24:13.346Z,363
2022-12-09T00:25:14.431Z,366
2022-12-09T00:26:13.522Z,375
2022-12-09T00:28:13.876Z,371
2022-12-09T00:29:14.243Z,384
2022-12-09T00:30:15.008Z,377
2022-12-09T00:31:13.529Z,351
2022-12-09T00:32:13.784Z,371
2022-12-09T00:33:14.529Z,377
2022-12-09T00:34:13.427Z,385
2022-12-09T00:35:15.029Z,379
2022-12-09T00:36:14.003Z,377
2022-12-09T00:37:13.981Z,368
2022-12-09T00:38:14.024Z,377
2022-12-09T00:39:13.864Z,376
2022-12-09T00:40:13.912Z,374
2022-12-09T00:41:14.246Z,371
2022-12-09T00:42:14.004Z,370
2022-12-09T00:43:14.035Z,374
2022-12-09T00:44:13.607Z,362
2022-12-09T00:45:13.764Z,377
2022-12-09T00:46:12.899Z,371
2022-12-09T00:47:13.501Z,373
2022-12-09T00:48:13.980Z,374
2022-12-09T00:49:13.368Z,373
2022-12-09T00:51:13.566Z,371
2022-12-09T00:52:14.079Z,399
2022-12-09T00:53:13.679Z,382
2022-12-09T00:54:14.371Z,367
2022-12-09T00:55:14.465Z,370
2022-12-09T00:56:14.544Z,373
2022-12-09T00:57:14.131Z,378
2022-12-09T00:58:13.955Z,376
2022-12-09T00:59:13.864Z,379
2022-12-09T01:00:14.779Z,376
2022-12-09T01:01:16.225Z,374
2022-12-09T01:02:14.312Z,373
2022-12-09T01:03:14.266Z,381
2022-12-09T01:05:14.453Z,382
2022-12-09T01:06:13.909Z,379
2022-12-09T01:07:13.385Z,378
2022-12-09T01:08:13.740Z,373
2022-12-09T01:09:13.437Z,371
2022-12-09T01:10:14.046Z,374
2022-12-09T01:11:13.899Z,371
2022-12-09T01:12:13.717Z,367
2022-12-09T01:13:13.205Z,381
2022-12-09T01:14:13.308Z,372
2022-12-09T01:15:13.605Z,395
2022-12-09T01:16:13.998Z,372
2022-12-09T01:17:14.344Z,379
2022-12-09T01:18:14.179Z,383
2022-12-09T01:19:13.192Z,380
2022-12-09T01:21:13.459Z,383
2022-12-09T01:22:13.826Z,382
2022-12-09T01:23:13.226Z,377
2022-12-09T01:24:13.152Z,374
2022-12-09T01:25:13.519Z,382
2022-12-09T01:26:13.953Z,380
2022-12-09T01:27:13.169Z,364
2022-12-09T01:28:13.095Z,369
2022-12-09T01:29:13.535Z,375
2022-12-09T01:30:13.997Z,389
2022-12-09T01:31:13.890Z,379
2022-12-09T01:32:13.747Z,372
2022-12-09T01:33:13.298Z,375
2022-12-09T01:34:12.964Z,382
2022-12-09T01:35:12.909Z,381
2022-12-09T01:36:13.975Z,390
2022-12-09T01:37:12.817Z,389
2022-12-09T01:38:13.867Z,390
2022-12-09T01:39:12.735Z,371
2022-12-09T01:40:14.866Z,375
2022-12-09T01:42:13.240Z,370
2022-12-09T01:44:13.722Z,374
2022-12-09T01:45:15.136Z,369
2022-12-09T01:46:13.398Z,381
2022-12-09T01:47:14.448Z,385
2022-12-09T01:49:13.308Z,378
2022-12-09T01:50:13.228Z,375
2022-12-09T01:51:13.192Z,377
2022-12-09T01:52:13.613Z,374
2022-12-09T01:53:12.614Z,387
2022-12-09T01:54:12.631Z,390
2022-12-09T01:55:13.517Z,392
2022-12-09T01:56:13.884Z,395
2022-12-09T01:57:14.119Z,391
2022-12-09T01:58:13.590Z,382
2022-12-09T02:00:14.494Z,358
2022-12-09T02:01:13.940Z,363
2022-12-09T02:02:13.790Z,370
2022-12-09T02:03:13.623Z,369
2022-12-09T02:04:13.692Z,371
2022-12-09T02:05:13.881Z,368
2022-12-09T02:06:13.458Z,384
2022-12-09T02:07:13.418Z,386
2022-12-09T02:08:13.660Z,380
2022-12-09T02:09:14.190Z,384
2022-12-09T02:11:13.572Z,375
2022-12-09T02:12:13.211Z,370
2022-12-09T02:13:13.182Z,380
2022-12-09T02:15:14.140Z,382
2022-12-09T02:16:12.867Z,383
2022-12-09T02:17:13.291Z,378
2022-12-09T02:18:14.065Z,386
2022-12-09T02:20:13.725Z,380
2022-12-09T02:21:13.794Z,379
2022-12-09T02:23:13.916Z,381
2022-12-09T02:25:13.369Z,384
2022-12-09T02:26:13.275Z,385
2022-12-09T02:27:14.036Z,383
2022-12-09T02:28:13.980Z,379
2022-12-09T02:29:13.738Z,380
2022-12-09T02:31:13.748Z,385
2022-12-09T02:32:13.813Z,378
2022-12-09T02:33:13.363Z,380
2022-12-09T02:34:13.629Z,379
2022-12-09T02:35:13.550Z,384
2022-12-09T02:37:13.323Z,382
2022-12-09T02:38:13.792Z,375
2022-12-09T02:39:14.012Z,377
2022-12-09T02:40:14.308Z,381
2022-12-09T02:41:13.875Z,378
2022-12-09T02:42:13.482Z,392
2022-12-09T02:44:13.672Z,388
2022-12-09T02:45:14.181Z,399
2022-12-09T02:46:13.303Z,380
2022-12-09T02:47:13.957Z,406
2022-12-09T02:48:13.090Z,375
2022-12-09T02:49:13.545Z,379
2022-12-09T02:50:14.696Z,389
2022-12-09T02:51:13.645Z,390
2022-12-09T02:52:13.275Z,384
2022-12-09T02:53:12.620Z,372
2022-12-09T02:55:14.289Z,384
2022-12-09T02:56:13.190Z,374
2022-12-09T02:57:13.140Z,378
2022-12-09T02:58:13.070Z,376
2022-12-09T02:59:13.136Z,369
2022-12-09T03:00:14.427Z,367
2022-12-09T03:01:14.134Z,377
2022-12-09T03:02:13.288Z,375
2022-12-09T03:03:14.328Z,379
2022-12-09T03:04:13.448Z,385
2022-12-09T03:06:13.814Z,393
2022-12-09T03:07:13.772Z,381
2022-12-09T03:08:13.417Z,379
2022-12-09T03:09:13.685Z,374
2022-12-09T03:10:14.009Z,401
2022-12-09T03:11:14.407Z,396
2022-12-09T03:12:13.288Z,380
2022-12-09T03:13:13.514Z,383
2022-12-09T03:14:12.576Z,388
2022-12-09T03:15:13.123Z,389
2022-12-09T03:16:13.212Z,388
2022-12-09T03:17:13.755Z,390
2022-12-09T03:18:13.000Z,397
2022-12-09T03:19:13.656Z,388
2022-12-09T03:20:14.386Z,391
2022-12-09T03:21:13.462Z,398
2022-12-09T03:22:13.138Z,401
2022-12-09T03:23:13.273Z,386
2022-12-09T03:25:14.005Z,391
2022-12-09T03:26:13.181Z,394
2022-12-09T03:27:13.400Z,386
2022-12-09T03:28:13.168Z,392
2022-12-09T03:29:14.273Z,388
2022-12-09T03:30:14.141Z,381
2022-12-09T03:31:13.888Z,391
2022-12-09T03:32:13.336Z,401
2022-12-09T03:33:13.584Z,372
2022-12-09T03:34:12.748Z,364
2022-12-09T03:35:13.834Z,365
2022-12-09T03:36:12.695Z,369
2022-12-09T03:37:13.747Z,372
2022-12-09T03:38:13.508Z,371
2022-12-09T03:39:13.490Z,373
2022-12-09T03:40:14.305Z,369
2022-12-09T03:41:13.028Z,374
2022-12-09T03:44:13.239Z,373
2022-12-09T03:45:13.594Z,385
2022-12-09T03:47:13.258Z,379
2022-12-09T03:48:13.261Z,385
2022-12-09T03:49:13.576Z,378
2022-12-09T03:50:13.380Z,369
2022-12-09T03:51:12.731Z,372
2022-12-09T03:52:13.467Z,363
2022-12-09T03:53:13.019Z,375
2022-12-09T03:55:13.105Z,388
2022-12-09T03:56:12.983Z,372
2022-12-09T03:57:17.080Z,376
2022-12-09T03:58:14.391Z,375
2022-12-09T03:59:13.841Z,378
2022-12-09T04:00:14.851Z,380
2022-12-09T04:01:14.500Z,368
2022-12-09T04:02:13.634Z,378
2022-12-09T04:03:14.695Z,383
2022-12-09T04:04:14.007Z,385
2022-12-09T04:05:14.582Z,396
2022-12-09T04:06:14.203Z,384
2022-12-09T04:07:13.772Z,374
2022-12-09T04:08:13.054Z,372
2022-12-09T04:09:14.257Z,366
2022-12-09T04:10:13.603Z,364
2022-12-09T04:11:13.821Z,361
2022-12-09T04:12:13.479Z,369
2022-12-09T04:13:14.370Z,371
2022-12-09T04:14:15.748Z,382
2022-12-09T04:15:13.904Z,387
2022-12-09T04:16:13.414Z,393
2022-12-09T04:17:14.642Z,382
2022-12-09T04:18:14.661Z,400
2022-12-09T04:19:13.809Z,378
2022-12-09T04:20:14.036Z,372
2022-12-09T04:21:13.401Z,389
2022-12-09T04:22:14.010Z,391
2022-12-09T04:23:14.551Z,387
2022-12-09T04:24:14.936Z,389
2022-12-09T04:25:15.107Z,392
2022-12-09T04:26:14.887Z,394
2022-12-09T04:27:14.711Z,380
2022-12-09T04:28:14.036Z,376
2022-12-09T04:29:13.997Z,388
2022-12-09T04:30:14.047Z,379
2022-12-09T04:31:14.687Z,387
2022-12-09T04:32:14.300Z,393
2022-12-09T04:33:13.445Z,388
2022-12-09T04:34:13.948Z,400
2022-12-09T04:35:12.661Z,394
2022-12-09T04:36:13.176Z,393
2022-12-09T04:37:13.942Z,391
2022-12-09T04:38:14.193Z,387
2022-12-09T04:40:18.207Z,390
2022-12-09T04:41:13.220Z,395
2022-12-09T04:42:13.274Z,368
2022-12-09T04:43:13.988Z,376
2022-12-09T04:45:13.772Z,387
2022-12-09T04:46:12.805Z,395
2022-12-09T04:47:13.558Z,402
2022-12-09T04:48:13.179Z,386
2022-12-09T04:49:13.107Z,382
2022-12-09T04:50:13.960Z,387
2022-12-09T04:51:13.730Z,392
2022-12-09T04:52:13.717Z,395
2022-12-09T04:53:13.341Z,396
2022-12-09T04:55:13.172Z,399
2022-12-09T04:56:12.820Z,404
2022-12-09T04:57:13.774Z,396
2022-12-09T04:59:13.483Z,405
2022-12-09T05:00:15.188Z,395
2022-12-09T05:01:13.240Z,389
2022-12-09T05:02:13.565Z,394
2022-12-09T05:03:13.650Z,386
2022-12-09T05:04:13.991Z,389
2022-12-09T05:05:13.986Z,384
2022-12-09T05:06:17.848Z,388
2022-12-09T05:07:13.203Z,381
2022-12-09T05:08:13.955Z,388
2022-12-09T05:09:14.287Z,384
2022-12-09T05:10:14.395Z,387
2022-12-09T05:11:14.030Z,400
2022-12-09T05:12:13.611Z,399
2022-12-09T05:13:13.561Z,393
2022-12-09T05:14:13.754Z,390
2022-12-09T05:15:13.251Z,403
2022-12-09T05:16:16.991Z,400
2022-12-09T05:17:14.422Z,403
2022-12-09T05:18:19.641Z,390
2022-12-09T05:19:13.954Z,389
2022-12-09T05:20:14.660Z,393
2022-12-09T05:21:13.135Z,396
2022-12-09T05:22:14.025Z,395
2022-12-09T05:23:13.762Z,394
2022-12-09T05:24:13.749Z,400
2022-12-09T05:25:14.466Z,393
2022-12-09T05:26:13.926Z,399
2022-12-09T05:27:13.175Z,405
2022-12-09T05:28:13.938Z,395
2022-12-09T05:29:17.912Z,399
2022-12-09T05:30:14.840Z,406
2022-12-09T05:31:13.836Z,409
2022-12-09T05:32:13.217Z,407
2022-12-09T05:33:14.564Z,395
2022-12-09T05:35:13.838Z,387
2022-12-09T05:36:13.169Z,389
2022-12-09T05:37:14.039Z,401
2022-12-09T05:38:14.053Z,394
2022-12-09T05:39:12.948Z,382
2022-12-09T05:40:14.161Z,383
2022-12-09T05:41:14.743Z,388
2022-12-09T05:42:13.339Z,378
2022-12-09T05:43:13.894Z,382
2022-12-09T05:44:12.996Z,392
2022-12-09T05:45:13.149Z,398
2022-12-09T05:46:13.175Z,404
2022-12-09T05:47:14.175Z,405
2022-12-09T05:48:13.346Z,391
2022-12-09T05:49:12.839Z,389
2022-12-09T05:50:13.952Z,380
2022-12-09T05:51:13.138Z,402
2022-12-09T05:52:13.921Z,374
2022-12-09T05:53:13.455Z,384
2022-12-09T05:54:13.649Z,391
2022-12-09T05:55:14.252Z,393
2022-12-09T05:56:13.985Z,397
2022-12-09T05:58:13.217Z,402
2022-12-09T05:59:13.237Z,405
2022-12-09T06:00:14.692Z,407
2022-12-09T06:01:13.234Z,410
2022-12-09T06:02:14.034Z,403
2022-12-09T06:03:14.450Z,393
2022-12-09T06:04:13.366Z,398
2022-12-09T06:05:14.019Z,396
2022-12-09T06:06:13.754Z,397
2022-12-09T06:07:14.311Z,410
2022-12-09T06:08:13.421Z,403
2022-12-09T06:09:14.185Z,398
2022-12-09T06:10:14.526Z,399
2022-12-09T06:11:12.967Z,409
2022-12-09T06:12:13.035Z,385
2022-12-09T06:14:13.393Z,406
2022-12-09T06:15:18.735Z,390
2022-12-09T06:16:13.819Z,398
2022-12-09T06:17:14.338Z,397
2022-12-09T06:18:13.153Z,400
2022-12-09T06:20:14.563Z,411
2022-12-09T06:21:14.085Z,406
2022-12-09T06:22:13.957Z,395
2022-12-09T06:23:14.271Z,388
2022-12-09T06:25:14.651Z,394
2022-12-09T06:26:13.738Z,401
2022-12-09T06:27:13.492Z,407
2022-12-09T06:28:14.198Z,400
2022-12-09T06:29:13.980Z,405
2022-12-09T06:30:15.006Z,410
2022-12-09T06:31:13.318Z,405
2022-12-09T06:32:14.408Z,416
2022-12-09T06:33:37.284Z,429
2022-12-09T06:34:13.827Z,418
2022-12-09T06:35:14.287Z,411
2022-12-09T06:36:13.797Z,429
2022-12-09T06:37:13.273Z,445
2022-12-09T06:38:14.747Z,407
2022-12-09T06:39:13.709Z,419
2022-12-09T06:40:14.001Z,421
2022-12-09T06:42:13.181Z,423
2022-12-09T06:43:13.382Z,431
2022-12-09T06:44:20.019Z,424
2022-12-09T06:45:14.515Z,409
2022-12-09T06:46:14.032Z,411
2022-12-09T06:47:13.464Z,407
2022-12-09T06:48:13.195Z,415
2022-12-09T06:49:14.377Z,423
2022-12-09T06:50:13.920Z,435
2022-12-09T06:52:13.564Z,423
2022-12-09T06:53:13.718Z,416
2022-12-09T06:54:14.116Z,422
2022-12-09T06:55:14.643Z,416
2022-12-09T06:56:14.312Z,412
2022-12-09T06:57:14.453Z,425
2022-12-09T06:58:14.545Z,432
2022-12-09T06:59:15.011Z,434
2022-12-09T07:00:15.370Z,427
2022-12-09T07:01:14.773Z,403
2022-12-09T07:02:14.634Z,409
2022-12-09T07:03:14.799Z,413
2022-12-09T07:04:13.980Z,410
2022-12-09T07:05:14.334Z,413
2022-12-09T07:06:13.612Z,417
2022-12-09T07:07:13.602Z,419
2022-12-09T07:08:13.499Z,412
2022-12-09T07:09:13.967Z,414
2022-12-09T07:10:14.602Z,415
2022-12-09T07:11:13.981Z,422
2022-12-09T07:12:13.951Z,430
2022-12-09T07:13:13.947Z,424
2022-12-09T07:14:14.155Z,417
2022-12-09T07:15:15.166Z,416
2022-12-09T07:16:14.350Z,410
2022-12-09T07:17:14.732Z,411
2022-12-09T07:18:13.863Z,414
2022-12-09T07:19:14.900Z,423
2022-12-09T07:20:14.853Z,429
2022-12-09T07:21:13.411Z,433
2022-12-09T07:22:13.367Z,418
2022-12-09T07:23:13.724Z,455
2022-12-09T07:24:14.028Z,418
2022-12-09T07:25:13.983Z,404
2022-12-09T07:26:14.458Z,408
2022-12-09T07:27:19.271Z,422
2022-12-09T07:28:14.035Z,419
2022-12-09T07:29:13.541Z,413
2022-12-09T07:30:14.261Z,420
2022-12-09T07:31:13.786Z,425
2022-12-09T07:32:14.659Z,420
2022-12-09T07:33:13.279Z,424
2022-12-09T07:34:13.662Z,429
2022-12-09T07:35:15.646Z,440
2022-12-09T07:36:19.170Z,438
2022-12-09T07:37:18.834Z,423
2022-12-09T07:38:13.410Z,435
2022-12-09T07:39:14.732Z,446
2022-12-09T07:40:14.407Z,445
2022-12-09T07:41:13.627Z,444
2022-12-09T07:42:13.375Z,442
2022-12-09T07:43:13.335Z,446
2022-12-09T07:44:14.635Z,449
2022-12-09T07:45:22.101Z,454
2022-12-09T07:46:13.590Z,451
2022-12-09T07:47:14.146Z,428
2022-12-09T07:48:13.610Z,442
2022-12-09T07:49:21.869Z,450
2022-12-09T07:50:14.971Z,435
2022-12-09T07:51:14.139Z,439
2022-12-09T07:52:14.021Z,441
2022-12-09T07:53:14.890Z,446
2022-12-09T07:54:14.578Z,449
2022-12-09T07:55:15.521Z,460
2022-12-09T07:56:13.951Z,446
2022-12-09T07:57:14.323Z,441
2022-12-09T07:58:13.620Z,458
2022-12-09T07:59:13.790Z,457
2022-12-09T08:01:28.361Z,452
2022-12-09T08:02:14.176Z,448
2022-12-09T08:03:14.016Z,439
2022-12-09T08:04:14.462Z,440
2022-12-09T08:05:15.181Z,443
2022-12-09T08:06:13.960Z,440
2022-12-09T08:07:14.149Z,444
2022-12-09T08:08:14.510Z,448
2022-12-09T08:09:13.990Z,463
2022-12-09T08:10:14.066Z,445
2022-12-09T08:11:14.782Z,450
2022-12-09T08:12:15.142Z,453
2022-12-09T08:13:14.265Z,455
2022-12-09T08:14:14.172Z,439
2022-12-09T08:15:15.073Z,441
2022-12-09T08:16:14.400Z,433
2022-12-09T08:17:14.196Z,431
2022-12-09T08:18:13.678Z,441
2022-12-09T08:19:14.596Z,427
2022-12-09T08:20:15.593Z,429
2022-12-09T08:21:14.165Z,438
2022-12-09T08:22:14.743Z,435
2022-12-09T08:23:14.322Z,445
2022-12-09T08:24:14.648Z,444
2022-12-09T08:25:15.125Z,439
2022-12-09T08:26:15.276Z,426
2022-12-09T08:28:15.059Z,432
2022-12-09T08:29:14.316Z,429
2022-12-09T08:30:15.072Z,431
2022-12-09T08:31:14.558Z,433
2022-12-09T08:32:14.378Z,451
2022-12-09T08:33:14.977Z,437
2022-12-09T08:34:14.436Z,429
2022-12-09T08:35:13.763Z,427
2022-12-09T08:36:14.519Z,419
2022-12-09T08:37:13.995Z,414
2022-12-09T08:38:14.333Z,410
2022-12-09T08:39:14.826Z,402
2022-12-09T08:40:14.779Z,399
2022-12-09T08:41:14.492Z,396
2022-12-09T08:42:14.729Z,399
2022-12-09T08:43:13.392Z,404
2022-12-09T08:44:13.672Z,406
2022-12-09T08:45:13.930Z,403
2022-12-09T08:46:14.205Z,408
2022-12-09T08:47:14.775Z,401
2022-12-09T08:48:14.298Z,398
2022-12-09T08:49:14.498Z,392
2022-12-09T08:50:15.015Z,395
2022-12-09T08:51:14.582Z,407
2022-12-09T08:52:14.355Z,411
2022-12-09T08:53:14.621Z,424
2022-12-09T08:54:14.600Z,427
2022-12-09T08:55:15.218Z,426
2022-12-09T08:56:15.477Z,392
2022-12-09T08:57:15.492Z,399
2022-12-09T08:58:14.222Z,412
2022-12-09T08:59:13.795Z,407
2022-12-09T09:00:15.157Z,397
2022-12-09T09:01:14.137Z,395
2022-12-09T09:02:14.653Z,401
2022-12-09T09:04:14.632Z,390
2022-12-09T09:05:14.521Z,400
2022-12-09T09:06:14.808Z,403
2022-12-09T09:07:14.041Z,402
2022-12-09T09:08:13.512Z,391
2022-12-09T09:09:14.324Z,387
2022-12-09T09:10:14.827Z,391
2022-12-09T09:11:13.463Z,392
2022-12-09T09:12:14.111Z,409
2022-12-09T09:13:14.373Z,412
2022-12-09T09:14:14.109Z,404
2022-12-09T09:15:15.815Z,407
2022-12-09T09:16:14.933Z,411
2022-12-09T09:17:13.760Z,396
2022-12-09T09:18:14.228Z,414
2022-12-09T09:19:14.950Z,400
2022-12-09T09:20:14.880Z,395
2022-12-09T09:21:13.949Z,405
2022-12-09T09:22:14.435Z,406
2022-12-09T09:23:13.256Z,401
2022-12-09T09:24:14.213Z,394
2022-12-09T09:25:15.066Z,395
2022-12-09T09:26:14.465Z,399
2022-12-09T09:27:14.769Z,402
2022-12-09T09:28:13.682Z,398
2022-12-09T09:29:13.707Z,404
2022-12-09T09:30:14.534Z,395
2022-12-09T09:31:14.348Z,393
2022-12-09T09:32:13.357Z,388
2022-12-09T09:33:13.982Z,391
2022-12-09T09:34:14.229Z,397
2022-12-09T09:35:13.839Z,399
2022-12-09T09:36:14.941Z,390
2022-12-09T09:37:14.112Z,384
2022-12-09T09:38:14.042Z,396
2022-12-09T09:40:14.400Z,389
2022-12-09T09:41:13.945Z,408
2022-12-09T09:42:14.176Z,379
2022-12-09T09:43:13.636Z,395
2022-12-09T09:44:14.076Z,396
2022-12-09T09:45:13.911Z,389
2022-12-09T09:46:13.910Z,387
2022-12-09T09:47:13.923Z,382
2022-12-09T09:48:14.078Z,388
2022-12-09T09:49:13.895Z,393
2022-12-09T09:50:13.404Z,394
2022-12-09T09:51:13.860Z,405
2022-12-09T09:52:14.555Z,402
2022-12-09T09:53:14.159Z,405
2022-12-09T09:54:13.398Z,403
2022-12-09T09:55:13.916Z,396
2022-12-09T09:56:13.762Z,392
2022-12-09T09:57:14.423Z,394
2022-12-09T09:58:13.708Z,390
2022-12-09T09:59:14.316Z,399
2022-12-09T10:00:20.151Z,397
2022-12-09T10:01:13.767Z,401
2022-12-09T10:02:13.855Z,395
2022-12-09T10:04:14.067Z,402
2022-12-09T10:05:14.627Z,392
2022-12-09T10:06:13.776Z,396
2022-12-09T10:07:13.384Z,397
2022-12-09T10:08:13.536Z,389
2022-12-09T10:09:14.233Z,387
2022-12-09T10:10:21.526Z,383
2022-12-09T10:11:13.923Z,386
2022-12-09T10:12:13.516Z,385
2022-12-09T10:13:18.355Z,396
2022-12-09T10:14:14.066Z,391
2022-12-09T10:15:15.080Z,382
2022-12-09T10:16:14.336Z,387
2022-12-09T10:17:14.524Z,384
2022-12-09T10:18:14.606Z,387
2022-12-09T10:19:14.777Z,391
2022-12-09T10:20:29.566Z,396
2022-12-09T10:21:15.088Z,383
2022-12-09T10:22:13.787Z,388
2022-12-09T10:23:14.748Z,393
2022-12-09T10:24:14.979Z,390
2022-12-09T10:25:14.133Z,387
2022-12-09T10:26:14.356Z,388
2022-12-09T10:27:14.052Z,391
2022-12-09T10:28:13.710Z,396
2022-12-09T10:30:15.628Z,395
2022-12-09T10:31:13.688Z,391
2022-12-09T10:32:13.057Z,379
2022-12-09T10:33:15.140Z,380
2022-12-09T10:34:14.395Z,397
2022-12-09T10:35:14.291Z,382
2022-12-09T10:36:14.250Z,370
2022-12-09T10:37:14.666Z,380
2022-12-09T10:38:14.072Z,386
2022-12-09T10:39:14.093Z,383
2022-12-09T10:41:15.277Z,396
2022-12-09T10:42:14.716Z,397
2022-12-09T10:43:13.818Z,390
2022-12-09T10:44:14.199Z,376
2022-12-09T10:46:19.225Z,377
2022-12-09T10:47:13.603Z,378
2022-12-09T10:48:13.951Z,376
2022-12-09T10:49:14.447Z,365
2022-12-09T10:50:15.392Z,387
2022-12-09T10:51:14.170Z,382
2022-12-09T10:52:14.085Z,377
2022-12-09T10:53:14.317Z,378
2022-12-09T10:54:17.899Z,389
2022-12-09T10:55:13.968Z,390
2022-12-09T10:56:14.453Z,374
2022-12-09T10:57:14.572Z,371
2022-12-09T10:58:14.381Z,374
2022-12-09T10:59:13.877Z,364
2022-12-09T11:00:15.449Z,365
2022-12-09T11:01:14.047Z,367
2022-12-09T11:02:15.046Z,372
2022-12-09T11:03:14.560Z,374
2022-12-09T11:04:13.529Z,371
2022-12-09T11:07:14.087Z,375
2022-12-09T11:08:13.728Z,379
2022-12-09T11:09:14.542Z,388
2022-12-09T11:10:15.283Z,396
2022-12-09T11:11:13.789Z,397
2022-12-09T11:12:14.208Z,386
2022-12-09T11:13:14.537Z,387
2022-12-09T11:14:13.973Z,397
2022-12-09T11:15:14.164Z,390
2022-12-09T11:16:15.084Z,384
2022-12-09T11:17:14.609Z,382
2022-12-09T11:18:14.327Z,373
2022-12-09T11:19:13.600Z,370
2022-12-09T11:20:14.392Z,376
2022-12-09T11:25:14.068Z,380
2022-12-09T11:26:14.471Z,382
2022-12-09T11:27:14.244Z,385
2022-12-09T11:28:13.778Z,382
2022-12-09T11:29:14.092Z,378
2022-12-09T11:30:14.309Z,384
2022-12-09T11:31:29.158Z,386
2022-12-09T11:32:13.641Z,377
2022-12-09T11:33:13.382Z,373
2022-12-09T11:34:13.334Z,365
2022-12-09T11:35:13.673Z,396
2022-12-09T11:36:13.580Z,383
2022-12-09T11:37:14.281Z,377
2022-12-09T11:38:14.409Z,378
2022-12-09T11:39:14.449Z,373
2022-12-09T11:40:14.222Z,374
2022-12-09T11:41:13.958Z,368
2022-12-09T11:42:16.976Z,372
2022-12-09T11:43:14.174Z,371
2022-12-09T11:44:13.396Z,370
2022-12-09T11:45:14.880Z,366
2022-12-09T11:46:13.641Z,372
2022-12-09T11:47:14.628Z,374
2022-12-09T11:48:27.721Z,377
2022-12-09T11:49:12.474Z,364
2022-12-09T11:50:14.260Z,358
2022-12-09T11:51:14.090Z,361
2022-12-09T11:52:13.596Z,371
2022-12-09T11:53:14.305Z,373
2022-12-09T11:54:13.450Z,365
2022-12-09T11:55:14.159Z,376
2022-12-09T11:56:13.926Z,360
2022-12-09T11:57:15.251Z,387
2022-12-09T11:58:15.016Z,392
2022-12-09T11:59:14.780Z,353
2022-12-09T12:00:14.635Z,362
2022-12-09T12:01:13.422Z,370
2022-12-09T12:02:13.733Z,369
2022-12-09T12:03:14.006Z,367
2022-12-09T12:04:13.562Z,370
2022-12-09T12:05:16.888Z,375
2022-12-09T12:06:13.903Z,381
2022-12-09T12:07:13.044Z,387
2022-12-09T12:08:13.478Z,385
2022-12-09T12:10:13.596Z,380
2022-12-09T12:11:15.704Z,382
2022-12-09T12:12:13.699Z,379
2022-12-09T12:13:13.897Z,376
2022-12-09T12:14:14.073Z,367
2022-12-09T12:16:13.577Z,379
2022-12-09T12:17:15.085Z,374
2022-12-09T12:18:13.615Z,365
2022-12-09T12:19:13.790Z,354
2022-12-09T12:20:14.507Z,388
2022-12-09T12:21:13.308Z,377
2022-12-09T12:22:14.192Z,371
2022-12-09T12:23:14.427Z,365
2022-12-09T12:24:13.864Z,364
2022-12-09T12:25:18.983Z,367
2022-12-09T12:26:13.343Z,376
2022-12-09T12:27:14.374Z,385
2022-12-09T12:28:13.588Z,369
2022-12-09T12:29:14.188Z,367
2022-12-09T12:30:13.764Z,362
2022-12-09T12:31:18.864Z,364
2022-12-09T12:32:13.568Z,356
2022-12-09T12:34:00.425Z,373
2022-12-09T12:34:24.951Z,384
2022-12-09T12:35:14.340Z,378
2022-12-09T12:36:13.284Z,371
2022-12-09T12:37:13.865Z,366
2022-12-09T12:38:13.259Z,375
2022-12-09T12:39:13.939Z,376
2022-12-09T12:40:13.943Z,370
2022-12-09T12:42:14.008Z,372
2022-12-09T12:43:27.510Z,357
2022-12-09T12:44:13.867Z,359
2022-12-09T12:45:13.494Z,363
2022-12-09T12:46:13.906Z,368
2022-12-09T12:47:13.837Z,377
2022-12-09T12:48:14.639Z,384
2022-12-09T12:49:14.054Z,385
2022-12-09T12:50:13.499Z,387
2022-12-09T12:51:14.194Z,373
2022-12-09T12:52:47.011Z,362
2022-12-09T12:53:13.334Z,364
2022-12-09T12:54:14.007Z,373
2022-12-09T12:55:14.520Z,379
2022-12-09T12:56:13.843Z,382
2022-12-09T12:57:13.564Z,379
2022-12-09T12:58:13.902Z,377
2022-12-09T12:59:13.071Z,375
2022-12-09T13:00:14.588Z,376
2022-12-09T13:01:13.673Z,372
2022-12-09T13:02:13.616Z,373
2022-12-09T13:03:13.619Z,367
2022-12-09T13:05:14.424Z,378
2022-12-09T13:06:13.892Z,355
2022-12-09T13:07:13.764Z,374
2022-12-09T13:08:13.283Z,376
2022-12-09T13:10:14.455Z,370
2022-12-09T13:11:14.471Z,367
2022-12-09T13:12:14.164Z,379
2022-12-09T13:13:13.554Z,378
2022-12-09T13:14:14.359Z,370
2022-12-09T13:16:14.055Z,365
2022-12-09T13:17:13.682Z,366
2022-12-09T13:18:13.241Z,375
2022-12-09T13:19:13.703Z,381
2022-12-09T13:20:14.826Z,382
2022-12-09T13:21:14.773Z,376
2022-12-09T13:22:13.543Z,370
2022-12-09T13:23:14.035Z,366
2022-12-09T13:24:13.599Z,363
2022-12-09T13:26:13.714Z,373
2022-12-09T13:27:14.003Z,376
2022-12-09T13:28:13.636Z,361
2022-12-09T13:29:14.437Z,367
2022-12-09T13:30:14.493Z,377
2022-12-09T13:31:13.963Z,386
2022-12-09T13:32:13.750Z,387
2022-12-09T13:33:13.856Z,378
2022-12-09T13:34:13.966Z,384
2022-12-09T13:35:13.530Z,378
2022-12-09T13:36:13.183Z,372
2022-12-09T13:37:12.843Z,370
2022-12-09T13:38:14.130Z,371
2022-12-09T13:39:13.669Z,379
2022-12-09T13:40:14.278Z,382
2022-12-09T13:41:14.047Z,387
2022-12-09T13:42:13.546Z,380
2022-12-09T13:43:14.112Z,378
2022-12-09T13:44:13.284Z,386
2022-12-09T13:45:14.685Z,379
2022-12-09T13:46:14.192Z,385
2022-12-09T13:47:13.750Z,396
2022-12-09T13:48:17.263Z,392
2022-12-09T13:49:14.002Z,380
2022-12-09T13:50:14.451Z,374
2022-12-09T13:51:13.995Z,387
2022-12-09T13:52:13.119Z,385
2022-12-09T13:53:13.296Z,386
2022-12-09T13:54:14.861Z,385
2022-12-09T13:56:13.612Z,377
2022-12-09T13:57:13.555Z,384
2022-12-09T13:58:14.281Z,386
2022-12-09T13:59:13.908Z,383
2022-12-09T14:00:15.266Z,388
2022-12-09T14:01:14.096Z,394
2022-12-09T14:02:13.399Z,393
2022-12-09T14:03:14.546Z,390
2022-12-09T14:04:14.350Z,388
2022-12-09T14:05:14.348Z,391
2022-12-09T14:06:13.508Z,395
2022-12-09T14:07:13.868Z,387
2022-12-09T14:08:14.287Z,386
2022-12-09T14:09:13.716Z,378
2022-12-09T14:10:14.217Z,381
2022-12-09T14:11:13.553Z,368
2022-12-09T14:12:14.023Z,349
2022-12-09T14:13:13.558Z,390
2022-12-09T14:14:13.792Z,376
2022-12-09T14:17:13.305Z,371
2022-12-09T14:18:12.995Z,369
2022-12-09T14:19:15.494Z,377
2022-12-09T14:20:14.037Z,374
2022-12-09T14:21:13.085Z,383
2022-12-09T14:22:13.280Z,380
2022-12-09T14:23:13.855Z,383
2022-12-09T14:24:14.129Z,387
2022-12-09T14:25:13.893Z,390
2022-12-09T14:26:13.913Z,375
2022-12-09T14:27:13.495Z,379
2022-12-09T14:29:13.489Z,378
2022-12-09T14:30:14.306Z,375
2022-12-09T14:32:13.321Z,378
2022-12-09T14:33:13.990Z,380
2022-12-09T14:34:14.277Z,385
2022-12-09T14:35:13.215Z,367
2022-12-09T14:36:12.762Z,406
2022-12-09T14:37:13.727Z,383
2022-12-09T14:38:13.212Z,373
2022-12-09T14:39:24.316Z,369
2022-12-09T14:40:13.387Z,371
2022-12-09T14:41:13.990Z,381
2022-12-09T14:42:12.803Z,385
2022-12-09T14:43:14.089Z,384
2022-12-09T14:44:14.071Z,383
2022-12-09T14:45:13.918Z,376
2022-12-09T14:46:13.975Z,378